createdAt,value
2022-12-19T00:01:35.570Z,18.13
2022-12-19T00:04:08.430Z,18.47
2022-12-19T00:06:37.764Z,17.97
2022-12-19T00:09:05.627Z,19.23
2022-12-19T00:11:33.038Z,18.10
2022-12-19T00:14:00.333Z,18.33
2022-12-19T00:16:29.756Z,17.77
2022-12-19T00:18:59.434Z,19.60
2022-12-19T00:21:30.627Z,19.40
2022-12-19T00:23:58.221Z,17.40
2022-12-19T00:26:30.748Z,18.77
2022-12-19T00:29:00.010Z,16.87
2022-12-19T00:31:31.092Z,16.73
2022-12-19T00:33:57.960Z,18.00
2022-12-19T00:36:27.534Z,18.03
2022-12-19T00:38:56.685Z,18.23
2022-12-19T00:41:32.318Z,18.03
2022-12-19T00:44:01.799Z,18.60
2022-12-19T00:46:29.551Z,18.03
2022-12-19T00:48:56.229Z,17.63
2022-12-19T00:51:26.062Z,16.43
2022-12-19T00:53:54.493Z,16.17
2022-12-19T00:56:24.183Z,15.80
2022-12-19T00:58:50.990Z,17.00
2022-12-19T01:01:31.240Z,18.13
2022-12-19T01:04:27.292Z,17.13
2022-12-19T01:06:46.175Z,18.93
2022-12-19T01:09:13.859Z,18.53
2022-12-19T01:11:59.511Z,17.53
2022-12-19T01:14:26.292Z,17.43
2022-12-19T01:16:53.251Z,18.10
2022-12-19T01:19:20.431Z,17.23
2022-12-19T01:21:47.199Z,17.97
2022-12-19T01:24:16.320Z,17.97
2022-12-19T01:26:46.585Z,17.83
2022-12-19T01:29:13.305Z,18.73
2022-12-19T01:31:40.086Z,17.40
2022-12-19T01:34:06.876Z,16.43
2022-12-19T01:36:34.765Z,17.47
2022-12-19T01:39:07.167Z,17.87
2022-12-19T01:41:34.040Z,18.07
2022-12-19T01:44:05.919Z,16.23
2022-12-19T01:46:39.927Z,16.07
2022-12-19T01:49:15.938Z,16.70
2022-12-19T01:51:47.669Z,15.67
2022-12-19T01:54:22.546Z,16.53
2022-12-19T01:56:53.291Z,15.07
2022-12-19T01:59:26.567Z,16.43
2022-12-19T02:02:00.677Z,16.67
2022-12-19T02:04:32.362Z,16.10
2022-12-19T02:07:09.337Z,16.37
2022-12-19T02:09:51.910Z,15.93
2022-12-19T02:12:25.675Z,16.07
2022-12-19T02:14:54.355Z,15.67
2022-12-19T02:17:40.948Z,15.97
2022-12-19T02:20:23.896Z,16.43
2022-12-19T02:23:19.164Z,17.17
2022-12-19T02:25:56.760Z,16.73
2022-12-19T02:28:56.203Z,17.83
2022-12-19T02:31:31.207Z,17.03
2022-12-19T02:34:09.843Z,16.97
2022-12-19T02:37:12.039Z,18.13
2022-12-19T02:39:56.588Z,16.37
2022-12-19T02:42:31.846Z,18.10
2022-12-19T02:45:00.792Z,18.47
2022-12-19T02:47:29.938Z,18.57
2022-12-19T02:49:56.759Z,18.43
2022-12-19T02:52:23.490Z,18.77
2022-12-19T02:54:56.127Z,17.23
2022-12-19T02:57:33.688Z,15.13
2022-12-19T03:00:05.864Z,17.23
2022-12-19T03:02:41.837Z,18.33
2022-12-19T03:05:25.014Z,18.60
2022-12-19T03:08:20.941Z,16.53
2022-12-19T03:11:02.081Z,17.03
2022-12-19T03:13:37.636Z,17.63
2022-12-19T03:16:07.134Z,17.63
2022-12-19T03:18:34.232Z,16.80
2022-12-19T03:21:18.045Z,17.17
2022-12-19T03:23:46.635Z,16.73
2022-12-19T03:26:18.349Z,16.30
2022-12-19T03:29:06.966Z,15.97
2022-12-19T03:31:34.855Z,16.50
2022-12-19T03:34:08.800Z,16.13
2022-12-19T03:36:46.191Z,17.97
2022-12-19T03:39:14.751Z,17.67
2022-12-19T03:42:02.885Z,18.07
2022-12-19T03:44:35.415Z,17.50
2022-12-19T03:47:09.239Z,17.07
2022-12-19T03:49:36.786Z,20.17
2022-12-19T03:52:16.923Z,17.20
2022-12-19T03:54:54.810Z,15.90
2022-12-19T03:57:32.438Z,16.67
2022-12-19T04:00:06.568Z,16.87
2022-12-19T04:02:38.260Z,17.17
2022-12-19T04:05:09.286Z,17.63
2022-12-19T04:07:37.989Z,16.93
2022-12-19T04:10:07.929Z,17.20
2022-12-19T04:12:41.823Z,17.60
2022-12-19T04:15:09.400Z,16.37
2022-12-19T04:17:55.764Z,17.20
2022-12-19T04:20:27.026Z,16.57
2022-12-19T04:23:05.925Z,16.40
2022-12-19T04:25:37.703Z,16.87
2022-12-19T04:28:13.630Z,15.90
2022-12-19T04:30:42.595Z,16.30
2022-12-19T04:33:09.366Z,16.70
2022-12-19T04:35:36.657Z,16.27
2022-12-19T04:38:04.179Z,16.57
2022-12-19T04:40:31.303Z,16.33
2022-12-19T04:42:58.559Z,16.00
2022-12-19T04:45:25.366Z,17.33
2022-12-19T04:47:52.436Z,18.20
2022-12-19T04:50:19.190Z,17.07
2022-12-19T04:52:45.881Z,16.53
2022-12-19T04:55:12.599Z,16.80
2022-12-19T04:57:39.326Z,16.37
2022-12-19T05:00:08.594Z,16.90
2022-12-19T05:02:37.744Z,15.23
2022-12-19T05:05:04.911Z,16.40
2022-12-19T05:07:31.687Z,15.60
2022-12-19T05:09:58.355Z,17.70
2022-12-19T05:12:25.433Z,18.33
2022-12-19T05:14:52.251Z,18.40
2022-12-19T05:17:19.113Z,16.60
2022-12-19T05:19:45.782Z,18.00
2022-12-19T05:22:12.563Z,16.93
2022-12-19T05:24:39.333Z,17.17
2022-12-19T05:27:06.081Z,17.27
2022-12-19T05:29:32.903Z,19.40
2022-12-19T05:32:00.290Z,18.17
2022-12-19T05:34:27.018Z,19.13
2022-12-19T05:36:53.842Z,17.70
2022-12-19T05:39:20.619Z,17.80
2022-12-19T05:41:49.161Z,18.60
2022-12-19T05:44:16.868Z,20.13
2022-12-19T05:46:43.707Z,16.93
2022-12-19T05:49:10.616Z,18.27
2022-12-19T05:51:37.671Z,17.20
2022-12-19T05:54:04.624Z,16.87
2022-12-19T05:56:31.464Z,16.73
2022-12-19T05:58:58.233Z,17.70
2022-12-19T06:01:27.041Z,20.03
2022-12-19T06:03:55.106Z,18.70
2022-12-19T06:06:24.913Z,19.67
2022-12-19T06:08:59.423Z,17.30
2022-12-19T06:11:27.216Z,20.00
2022-12-19T06:13:54.201Z,18.00
2022-12-19T06:16:22.455Z,18.30
2022-12-19T06:18:50.663Z,18.43
2022-12-19T06:21:19.775Z,18.47
2022-12-19T06:23:47.409Z,17.80
2022-12-19T06:26:19.422Z,17.80
2022-12-19T06:28:48.178Z,17.83
2022-12-19T06:31:15.332Z,19.27
2022-12-19T06:33:42.330Z,17.77
2022-12-19T06:36:24.030Z,19.83
2022-12-19T06:38:51.391Z,18.60
2022-12-19T06:41:38.320Z,19.53
2022-12-19T06:44:07.515Z,18.63
2022-12-19T06:46:35.412Z,18.73
2022-12-19T06:49:02.759Z,20.03
2022-12-19T06:51:29.966Z,20.67
2022-12-19T06:53:56.966Z,20.83
2022-12-19T06:56:23.870Z,18.30
2022-12-19T06:58:51.232Z,19.47
2022-12-19T07:01:30.610Z,19.03
2022-12-19T07:03:57.550Z,18.33
2022-12-19T07:06:24.426Z,19.03
2022-12-19T07:08:51.228Z,18.67
2022-12-19T07:11:18.012Z,20.33
2022-12-19T07:13:44.764Z,21.53
2022-12-19T07:16:11.627Z,19.13
2022-12-19T07:18:40.321Z,19.77
2022-12-19T07:21:11.252Z,19.33
2022-12-19T07:23:38.687Z,20.10
2022-12-19T07:26:05.750Z,20.67
2022-12-19T07:28:34.794Z,18.37
2022-12-19T07:31:01.558Z,18.83
2022-12-19T07:33:28.304Z,19.17
2022-12-19T07:35:55.532Z,20.37
2022-12-19T07:38:22.313Z,19.20
2022-12-19T07:40:48.990Z,23.07
2022-12-19T07:43:15.893Z,25.30
2022-12-19T07:45:42.910Z,22.93
2022-12-19T07:48:10.161Z,21.03
2022-12-19T07:50:37.237Z,20.17
2022-12-19T07:53:04.117Z,19.93
2022-12-19T07:55:31.544Z,19.40
2022-12-19T07:57:59.697Z,19.17
2022-12-19T08:00:26.525Z,19.20
2022-12-19T08:02:53.442Z,20.17
2022-12-19T08:05:20.631Z,18.90
2022-12-19T08:07:47.487Z,20.37
2022-12-19T08:10:15.163Z,22.77
2022-12-19T08:12:42.318Z,22.63
2022-12-19T08:15:09.847Z,20.43
2022-12-19T08:17:41.341Z,21.07
2022-12-19T08:20:11.706Z,20.93
2022-12-19T08:22:38.626Z,21.00
2022-12-19T08:25:07.559Z,22.47
2022-12-19T08:27:35.127Z,21.87
2022-12-19T08:30:02.530Z,20.40
2022-12-19T08:32:29.589Z,21.03
2022-12-19T08:34:56.743Z,19.60
2022-12-19T08:37:23.700Z,21.07
2022-12-19T08:39:50.757Z,22.40
2022-12-19T08:42:17.712Z,20.47
2022-12-19T08:44:44.703Z,21.10
2022-12-19T08:47:11.493Z,21.23
2022-12-19T08:49:38.230Z,21.20
2022-12-19T08:52:04.955Z,20.20
2022-12-19T08:54:31.730Z,20.90
2022-12-19T08:56:58.809Z,20.27
2022-12-19T08:59:30.955Z,20.93
2022-12-19T09:02:00.650Z,19.83
2022-12-19T09:05:43.717Z,20.67
2022-12-19T09:07:16.166Z,21.13
2022-12-19T09:09:45.251Z,20.10
2022-12-19T09:12:14.262Z,20.90
2022-12-19T09:14:41.296Z,21.27
2022-12-19T09:17:08.831Z,20.37
2022-12-19T09:19:35.680Z,20.93
2022-12-19T09:22:02.766Z,20.97
2022-12-19T09:24:29.608Z,20.40
2022-12-19T09:26:56.396Z,20.80
2022-12-19T09:29:24.097Z,19.90
2022-12-19T09:31:55.633Z,19.53
2022-12-19T09:34:38.145Z,18.97
2022-12-19T09:37:07.885Z,19.37
2022-12-19T09:39:36.212Z,19.73
2022-12-19T09:42:26.377Z,19.60
2022-12-19T09:45:05.949Z,19.57
2022-12-19T09:47:39.195Z,19.40
2022-12-19T09:50:23.190Z,19.63
2022-12-19T09:52:59.682Z,21.10
2022-12-19T09:55:35.594Z,19.43
2022-12-19T09:58:08.108Z,19.83
2022-12-19T10:00:49.028Z,20.37
2022-12-19T10:03:29.328Z,21.77
2022-12-19T10:06:51.775Z,19.87
2022-12-19T10:10:36.281Z,20.50
2022-12-19T10:12:45.911Z,20.70
2022-12-19T10:14:56.907Z,20.73
2022-12-19T10:17:42.925Z,20.77
2022-12-19T10:20:21.817Z,21.37
2022-12-19T10:23:00.617Z,21.07
2022-12-19T10:25:54.310Z,20.57
2022-12-19T10:28:46.051Z,22.67
2022-12-19T10:31:40.669Z,22.10
2022-12-19T10:34:25.133Z,21.77
2022-12-19T10:40:01.668Z,20.73
2022-12-19T10:42:56.271Z,22.17
2022-12-19T10:45:32.823Z,21.87
2022-12-19T10:47:59.994Z,22.93
2022-12-19T10:50:29.881Z,23.80
2022-12-19T10:53:08.178Z,23.63
2022-12-19T10:55:46.665Z,24.20
2022-12-19T10:58:32.571Z,22.40
2022-12-19T11:01:15.710Z,24.70
2022-12-19T11:03:46.504Z,24.50
2022-12-19T11:06:38.447Z,21.93
2022-12-19T11:09:31.181Z,22.30
2022-12-19T11:13:07.415Z,22.87
2022-12-19T11:20:35.616Z,21.53
2022-12-19T11:20:42.860Z,23.00
2022-12-19T11:29:25.861Z,23.70
2022-12-19T11:30:09.509Z,23.37
2022-12-19T11:30:43.938Z,21.70
2022-12-19T11:32:42.976Z,23.20
2022-12-19T11:35:25.349Z,23.03
2022-12-19T11:38:06.071Z,22.70
2022-12-19T11:40:49.466Z,23.23
2022-12-19T11:43:55.312Z,21.53
2022-12-19T11:46:40.923Z,24.47
2022-12-19T11:49:28.532Z,23.57
2022-12-19T11:52:23.742Z,24.03
2022-12-19T11:55:15.761Z,22.17
2022-12-19T11:57:42.891Z,25.77
2022-12-19T12:00:16.289Z,23.57
2022-12-19T12:03:04.846Z,24.20
2022-12-19T12:05:46.756Z,23.67
2022-12-19T12:12:25.788Z,22.17
2022-12-19T12:19:39.128Z,23.20
2022-12-19T12:24:05.016Z,22.07
2022-12-19T12:30:59.451Z,22.77
2022-12-19T12:31:16.209Z,25.20
2022-12-19T12:31:20.597Z,22.70
2022-12-19T12:31:48.725Z,24.27
2022-12-19T12:31:48.870Z,23.80
2022-12-19T12:35:51.820Z,22.97
2022-12-19T12:37:54.075Z,24.93
2022-12-19T12:38:45.960Z,24.73
2022-12-19T12:41:43.632Z,24.27
2022-12-19T12:44:12.440Z,24.07
2022-12-19T12:47:15.406Z,23.67
2022-12-19T12:49:45.920Z,24.37
2022-12-19T12:52:20.533Z,22.27
2022-12-19T12:54:48.977Z,23.53
2022-12-19T12:57:26.657Z,22.50
2022-12-19T13:00:18.058Z,24.47
2022-12-19T13:02:50.377Z,24.23
2022-12-19T13:05:23.235Z,23.27
2022-12-19T13:07:54.809Z,23.63
2022-12-19T13:10:30.580Z,24.53
2022-12-19T13:13:42.555Z,24.77
2022-12-19T13:16:48.784Z,24.97
2022-12-19T13:19:30.880Z,24.17
2022-12-19T13:22:35.852Z,26.00
2022-12-19T13:25:02.813Z,24.30
2022-12-19T13:27:38.502Z,26.70
2022-12-19T13:30:12.602Z,25.40
2022-12-19T13:32:39.565Z,24.93
2022-12-19T13:36:29.618Z,25.40
2022-12-19T13:39:54.164Z,24.57
2022-12-19T13:41:59.558Z,24.10
2022-12-19T13:44:27.143Z,27.53
2022-12-19T13:46:55.979Z,25.93
2022-12-19T13:49:32.956Z,28.30
2022-12-19T13:52:04.587Z,26.17
2022-12-19T13:54:37.119Z,28.80
2022-12-19T13:57:31.812Z,27.93
2022-12-19T14:00:05.705Z,29.63
2022-12-19T14:02:44.733Z,29.23
2022-12-19T14:06:14.526Z,27.47
2022-12-19T14:08:21.824Z,26.60
2022-12-19T14:11:45.785Z,26.00
2022-12-19T14:14:14.975Z,25.57
2022-12-19T14:16:46.519Z,25.60
2022-12-19T14:19:25.021Z,29.03
2022-12-19T14:22:10.784Z,30.17
2022-12-19T14:24:41.401Z,27.77
2022-12-19T14:28:23.279Z,27.60
2022-12-19T14:30:28.110Z,28.43
2022-12-19T14:33:47.501Z,29.93
2022-12-19T14:36:06.823Z,28.47
2022-12-19T14:39:23.439Z,25.30
2022-12-19T14:41:46.729Z,25.97
2022-12-19T14:52:08.674Z,24.40
2022-12-19T14:53:51.636Z,24.50
2022-12-19T14:54:13.314Z,24.30
2022-12-19T14:54:31.033Z,23.23
2022-12-19T14:56:13.690Z,22.57
2022-12-19T14:58:56.011Z,22.83
2022-12-19T15:01:26.942Z,23.00
2022-12-19T15:04:47.988Z,23.73
2022-12-19T15:07:09.985Z,24.53
2022-12-19T15:11:03.132Z,23.73
2022-12-19T15:14:53.425Z,21.50
2022-12-19T15:16:26.597Z,21.67
2022-12-19T15:18:56.933Z,21.70
2022-12-19T15:21:24.149Z,20.60
2022-12-19T15:23:51.039Z,21.67
2022-12-19T15:26:20.610Z,20.53
2022-12-19T15:28:50.168Z,20.77
2022-12-19T15:31:24.312Z,20.77
2022-12-19T15:36:38.263Z,21.60
2022-12-19T15:39:05.555Z,21.50
2022-12-19T15:41:35.732Z,23.13
2022-12-19T15:44:15.668Z,22.77
2022-12-19T15:46:48.471Z,23.13
2022-12-19T15:49:18.074Z,22.67
2022-12-19T15:51:45.829Z,22.27
2022-12-19T15:54:47.267Z,23.80
2022-12-19T15:56:59.596Z,23.03
2022-12-19T15:59:37.504Z,22.63
2022-12-19T16:02:17.180Z,22.70
2022-12-19T16:04:45.761Z,20.53
2022-12-19T16:07:18.234Z,22.90
2022-12-19T16:09:45.293Z,22.20
2022-12-19T16:12:15.767Z,22.60
2022-12-19T16:14:43.311Z,24.03
2022-12-19T16:17:18.005Z,25.83
2022-12-19T16:19:44.885Z,24.33
2022-12-19T16:22:23.829Z,23.40
2022-12-19T16:24:52.039Z,22.53
2022-12-19T16:27:36.685Z,26.40
2022-12-19T16:30:19.259Z,24.50
2022-12-19T16:32:46.367Z,23.13
2022-12-19T16:35:23.896Z,25.50
2022-12-19T16:38:01.138Z,23.97
2022-12-19T16:40:28.063Z,25.20
2022-12-19T16:43:04.544Z,24.87
2022-12-19T16:45:33.579Z,26.90
2022-12-19T16:48:00.705Z,26.90
2022-12-19T16:50:30.920Z,25.87
2022-12-19T16:53:00.946Z,24.47
2022-12-19T16:55:27.765Z,27.33
2022-12-19T16:57:56.521Z,27.07
2022-12-19T17:00:24.454Z,25.83
2022-12-19T17:03:08.609Z,23.90
2022-12-19T17:05:35.590Z,23.50
2022-12-19T17:08:02.337Z,23.10
2022-12-19T17:10:33.796Z,24.57
2022-12-19T17:13:03.275Z,25.70
2022-12-19T17:15:36.787Z,25.00
2022-12-19T17:18:27.236Z,25.00
2022-12-19T17:20:54.156Z,23.80
2022-12-19T17:23:23.270Z,23.70
2022-12-19T17:25:50.419Z,23.27
2022-12-19T17:28:17.336Z,24.47
2022-12-19T17:30:53.963Z,25.57
2022-12-19T17:33:22.816Z,26.53
2022-12-19T17:35:49.782Z,26.00
2022-12-19T17:38:18.021Z,28.73
2022-12-19T17:40:45.526Z,27.90
2022-12-19T17:43:12.935Z,24.17
2022-12-19T17:45:40.727Z,23.97
2022-12-19T17:48:33.195Z,22.43
2022-12-19T17:51:00.243Z,22.23
2022-12-19T17:53:27.023Z,28.90
2022-12-19T17:55:53.872Z,22.43
2022-12-19T17:58:21.659Z,21.27
2022-12-19T18:00:49.874Z,21.97
2022-12-19T18:03:25.604Z,20.07
2022-12-19T18:05:54.596Z,21.33
2022-12-19T18:08:28.587Z,20.67
2022-12-19T18:10:58.479Z,23.50
2022-12-19T18:13:26.723Z,23.53
2022-12-19T18:15:57.202Z,22.20
2022-12-19T18:18:29.089Z,22.53
2022-12-19T18:20:56.976Z,21.63
2022-12-19T18:23:23.994Z,23.77
2022-12-19T18:25:56.088Z,23.00
2022-12-19T18:28:26.203Z,21.93
2022-12-19T18:30:59.500Z,21.30
2022-12-19T18:33:26.460Z,23.60
2022-12-19T18:35:53.271Z,25.47
2022-12-19T18:38:22.914Z,27.50
2022-12-19T18:40:52.036Z,28.33
2022-12-19T18:43:19.552Z,27.70
2022-12-19T18:45:50.454Z,29.73
2022-12-19T18:48:24.016Z,29.03
2022-12-19T18:50:51.101Z,28.50
2022-12-19T18:53:21.696Z,26.87
2022-12-19T18:55:49.102Z,26.33
2022-12-19T18:58:15.827Z,26.73
2022-12-19T19:00:42.652Z,25.90
2022-12-19T19:03:15.442Z,25.87
2022-12-19T19:05:43.031Z,25.97
2022-12-19T19:08:24.870Z,24.87
2022-12-19T19:10:53.838Z,27.43
2022-12-19T19:13:22.450Z,25.60
2022-12-19T19:15:54.835Z,24.63
2022-12-19T19:18:33.794Z,23.43
2022-12-19T19:21:02.428Z,21.13
2022-12-19T19:23:52.300Z,22.37
2022-12-19T19:26:19.129Z,23.07
2022-12-19T19:28:51.686Z,26.67
2022-12-19T19:31:21.418Z,30.30
2022-12-19T19:33:52.544Z,31.87
2022-12-19T19:36:23.335Z,33.60
2022-12-19T19:38:53.667Z,33.40
2022-12-19T19:41:20.719Z,34.37
2022-12-19T19:43:47.433Z,33.37
2022-12-19T19:46:14.340Z,33.20
2022-12-19T19:48:42.665Z,32.63
2022-12-19T19:51:09.788Z,32.63
2022-12-19T19:53:36.540Z,31.40
2022-12-19T19:56:04.984Z,32.00
2022-12-19T19:58:32.205Z,30.30
2022-12-19T20:00:59.465Z,30.63
2022-12-19T20:03:27.336Z,29.70
2022-12-19T20:06:02.105Z,29.23
2022-12-19T20:08:35.203Z,30.57
2022-12-19T20:11:06.014Z,25.43
2022-12-19T20:13:33.173Z,27.20
2022-12-19T20:16:06.614Z,30.97
2022-12-19T20:18:34.151Z,30.63
2022-12-19T20:21:01.021Z,29.10
2022-12-19T20:23:28.205Z,29.63
2022-12-19T20:25:59.889Z,26.13
2022-12-19T20:28:26.745Z,26.60
2022-12-19T20:30:53.587Z,26.33
2022-12-19T20:33:20.428Z,22.90
2022-12-19T20:35:47.160Z,25.03
2022-12-19T20:38:14.054Z,25.67
2022-12-19T20:40:40.747Z,27.77
2022-12-19T20:43:07.595Z,26.17
2022-12-19T20:45:34.483Z,25.60
2022-12-19T20:48:01.432Z,26.40
2022-12-19T20:50:28.272Z,24.43
2022-12-19T20:52:55.754Z,23.67
2022-12-19T20:55:22.649Z,23.67
2022-12-19T20:57:49.504Z,23.77
2022-12-19T21:00:17.986Z,23.70
2022-12-19T21:03:25.908Z,25.77
2022-12-19T21:05:31.657Z,28.63
2022-12-19T21:07:58.381Z,30.10
2022-12-19T21:10:25.117Z,32.20
2022-12-19T21:12:52.004Z,35.90
2022-12-19T21:15:18.954Z,34.03
2022-12-19T21:17:45.775Z,32.43
2022-12-19T21:20:13.743Z,33.73
2022-12-19T21:22:41.100Z,31.30
2022-12-19T21:25:08.540Z,33.97
2022-12-19T21:27:35.302Z,34.07
2022-12-19T21:30:02.036Z,33.27
2022-12-19T21:32:28.928Z,33.67
2022-12-19T21:34:55.661Z,34.57
2022-12-19T21:37:24.357Z,34.10
2022-12-19T21:39:51.144Z,30.43
2022-12-19T21:42:18.094Z,31.33
2022-12-19T21:44:44.924Z,32.00
2022-12-19T21:47:11.922Z,33.23
2022-12-19T21:49:38.918Z,29.13
2022-12-19T21:52:05.718Z,31.57
2022-12-19T21:54:32.622Z,27.47
2022-12-19T21:57:00.165Z,29.43
2022-12-19T21:59:27.257Z,30.27
2022-12-19T22:01:55.107Z,28.70
2022-12-19T22:04:27.488Z,31.90
2022-12-19T22:06:54.590Z,29.87
2022-12-19T22:09:22.960Z,27.67
2022-12-19T22:11:49.858Z,27.73
2022-12-19T22:14:17.730Z,28.20
2022-12-19T22:16:44.776Z,30.13
2022-12-19T22:19:15.016Z,29.00
2022-12-19T22:21:41.854Z,29.50
2022-12-19T22:24:12.383Z,28.70
2022-12-19T22:26:39.275Z,27.83
2022-12-19T22:29:08.763Z,29.43
2022-12-19T22:31:39.037Z,28.80
2022-12-19T22:34:10.334Z,28.13
2022-12-19T22:36:39.795Z,27.50
2022-12-19T22:39:09.769Z,28.90
2022-12-19T22:41:37.285Z,27.43
2022-12-19T22:44:05.273Z,27.97
2022-12-19T22:46:34.927Z,30.90
2022-12-19T22:49:05.105Z,29.23
2022-12-19T22:51:33.555Z,36.57
2022-12-19T22:54:00.729Z,31.60
2022-12-19T22:56:30.396Z,28.30
2022-12-19T22:59:00.914Z,26.47
2022-12-19T23:01:31.051Z,28.90
2022-12-19T23:04:00.090Z,26.30
2022-12-19T23:06:28.659Z,28.43
2022-12-19T23:08:55.761Z,28.97
2022-12-19T23:11:31.928Z,28.33
2022-12-19T23:14:00.495Z,28.33
2022-12-19T23:16:27.766Z,27.63
2022-12-19T23:18:54.727Z,26.67
2022-12-19T23:21:24.436Z,29.30
2022-12-19T23:23:53.249Z,29.63
2022-12-19T23:26:26.442Z,26.47
2022-12-19T23:28:56.877Z,25.70
2022-12-19T23:31:24.256Z,27.60
2022-12-19T23:33:51.679Z,26.63
2022-12-19T23:36:38.031Z,27.53
2022-12-19T23:39:05.642Z,27.03
2022-12-19T23:41:32.477Z,27.17
2022-12-19T23:43:59.372Z,27.30
2022-12-19T23:46:27.460Z,28.27
2022-12-19T23:48:54.337Z,26.20
2022-12-19T23:51:25.226Z,27.30
2022-12-19T23:53:52.977Z,27.27
2022-12-19T23:56:28.199Z,29.30
2022-12-19T23:58:55.405Z,26.83
